Corcovado, Argentina
Current Conditions -  °F | °C
As of 2:00 AM on Friday 31 Oct 2014 (Local Time) from SAVE Reporting Station
Scattered Clouds Scattered Clouds  
Wind Chill: -5°   Ceiling: Unl
Heat Index:   Visibility: 6mi
Dew Point: -2°   Wind: 16mph
Humidity: 81%   Direction: 270°W
Pressure: 29.97"   Gusts: NA
Location:  43.46°S, 71.09°W
Report Text: SAVE 310500Z 27014KT 9999 SCT025 01/M02 Q1015
Loading
Personal Weather Stations






























Interactive Weather Map
Tropical Storm Tracking
New forecast layout! Learn more

10-Day Weather Forecast

Advertisements
Track Severe Weather on mobile